createdAt,value
2023-04-21T00:01:59.116Z,12.30
2023-04-21T00:04:26.377Z,9.80
2023-04-21T00:06:53.410Z,10.60
2023-04-21T00:09:21.647Z,10.70
2023-04-21T00:11:48.713Z,6.30
2023-04-21T00:14:15.749Z,11.50
2023-04-21T00:16:42.713Z,12.10
2023-04-21T00:19:09.714Z,10.90
2023-04-21T00:21:36.471Z,10.80
2023-04-21T00:24:03.802Z,6.80
2023-04-21T00:26:30.951Z,10.60
2023-04-21T00:28:58.053Z,9.50
2023-04-21T00:31:25.020Z,13.90
2023-04-21T00:33:52.079Z,9.20
2023-04-21T00:36:24.869Z,7.90
2023-04-21T00:38:52.490Z,6.30
2023-04-21T00:41:19.244Z,8.60
2023-04-21T00:44:02.533Z,15.20
2023-04-21T00:46:32.022Z,9.20
2023-04-21T00:48:59.307Z,10.70
2023-04-21T00:51:28.529Z,8.00
2023-04-21T00:53:56.034Z,8.50
2023-04-21T00:56:22.912Z,15.00
2023-04-21T00:58:50.642Z,8.00
2023-04-21T01:01:18.069Z,10.60
2023-04-21T01:03:46.704Z,7.50
2023-04-21T01:06:13.998Z,8.50
2023-04-21T01:08:40.769Z,12.90
2023-04-21T01:11:12.158Z,11.90
2023-04-21T01:13:40.459Z,6.90
2023-04-21T01:16:10.780Z,10.10
2023-04-21T01:18:37.729Z,9.40
2023-04-21T01:21:06.423Z,7.90
2023-04-21T01:23:34.743Z,8.30
2023-04-21T01:26:01.547Z,8.10
2023-04-21T01:28:28.686Z,6.70
2023-04-21T01:30:55.568Z,6.40
2023-04-21T01:33:22.740Z,9.40
2023-04-21T01:35:50.343Z,11.20
2023-04-21T01:38:19.853Z,9.10
2023-04-21T01:40:48.720Z,9.70
2023-04-21T01:43:16.166Z,5.90
2023-04-21T01:45:43.168Z,10.40
2023-04-21T01:48:10.771Z,12.10
2023-04-21T01:50:40.335Z,11.40
2023-04-21T01:53:09.877Z,8.90
2023-04-21T01:55:36.739Z,12.40
2023-04-21T01:58:04.283Z,7.90
2023-04-21T02:00:31.798Z,8.30
2023-04-21T02:02:58.657Z,13.80
2023-04-21T02:05:25.894Z,7.90
2023-04-21T02:07:52.721Z,6.00
2023-04-21T02:10:23.095Z,9.40
2023-04-21T02:12:50.047Z,11.80
2023-04-21T02:15:16.874Z,7.90
2023-04-21T02:17:45.026Z,7.80
2023-04-21T02:20:14.848Z,11.90
2023-04-21T02:22:42.123Z,6.10
2023-04-21T02:25:08.910Z,9.40
2023-04-21T02:27:36.263Z,9.00
2023-04-21T02:30:03.874Z,9.90
2023-04-21T02:32:31.680Z,7.30
2023-04-21T02:34:58.540Z,8.90
2023-04-21T02:37:26.615Z,8.80
2023-04-21T02:39:53.446Z,9.90
2023-04-21T02:42:20.219Z,10.60
2023-04-21T02:44:48.062Z,10.80
2023-04-21T02:47:16.399Z,11.90
2023-04-21T02:49:43.250Z,9.40
2023-04-21T02:52:10.285Z,8.80
2023-04-21T02:54:37.089Z,8.10
2023-04-21T02:57:03.924Z,11.90
2023-04-21T02:59:31.618Z,9.30
2023-04-21T03:01:59.597Z,7.60
2023-04-21T03:04:26.628Z,10.80
2023-04-21T03:06:53.749Z,10.60
2023-04-21T03:09:21.050Z,7.40
2023-04-21T03:11:47.974Z,9.60
2023-04-21T03:14:14.642Z,9.80
2023-04-21T03:16:41.459Z,9.20
2023-04-21T03:19:08.331Z,10.40
2023-04-21T03:21:37.980Z,9.70
2023-04-21T03:24:06.444Z,10.00
2023-04-21T03:26:33.324Z,12.20
2023-04-21T03:29:00.020Z,7.60
2023-04-21T03:31:26.755Z,10.50
2023-04-21T03:33:53.438Z,10.40
2023-04-21T03:36:20.529Z,5.00
2023-04-21T03:38:47.454Z,6.40
2023-04-21T03:41:14.318Z,12.30
2023-04-21T03:43:41.911Z,10.40
2023-04-21T03:46:08.752Z,10.40
2023-04-21T03:48:35.937Z,7.80
2023-04-21T03:51:03.143Z,9.20
2023-04-21T03:53:30.062Z,8.80
2023-04-21T03:55:56.794Z,6.40
2023-04-21T03:58:23.895Z,7.90
2023-04-21T04:00:50.570Z,12.10
2023-04-21T04:03:17.773Z,9.50
2023-04-21T04:05:45.475Z,10.40
2023-04-21T04:08:12.301Z,11.30
2023-04-21T04:10:39.038Z,8.60
2023-04-21T04:13:06.006Z,11.10
2023-04-21T04:15:33.102Z,10.20
2023-04-21T04:17:59.993Z,7.30
2023-04-21T04:20:26.904Z,9.50
2023-04-21T04:22:53.571Z,9.50
2023-04-21T04:25:20.375Z,9.80
2023-04-21T04:27:49.395Z,9.30
2023-04-21T04:30:16.701Z,7.20
2023-04-21T04:32:43.602Z,10.50
2023-04-21T04:35:10.392Z,8.70
2023-04-21T04:37:37.407Z,8.50
2023-04-21T04:40:06.421Z,9.60
2023-04-21T04:42:33.274Z,9.60
2023-04-21T04:45:01.811Z,10.00
2023-04-21T04:47:29.244Z,14.60
2023-04-21T04:49:56.047Z,16.30
2023-04-21T04:52:22.706Z,14.50
2023-04-21T04:54:49.494Z,9.80
2023-04-21T04:57:16.274Z,12.50
2023-04-21T04:59:42.989Z,10.50
2023-04-21T05:02:10.651Z,7.00
2023-04-21T05:04:38.012Z,11.90
2023-04-21T05:07:06.215Z,13.10
2023-04-21T05:09:34.155Z,14.50
2023-04-21T05:12:01.661Z,10.10
2023-04-21T05:14:28.491Z,11.30
2023-04-21T05:16:55.405Z,12.20
2023-04-21T05:19:22.256Z,9.70
2023-04-21T05:21:48.926Z,11.90
2023-04-21T05:24:15.675Z,11.90
2023-04-21T05:26:42.390Z,7.80
2023-04-21T05:29:09.514Z,11.00
2023-04-21T05:31:36.323Z,8.20
2023-04-21T05:34:03.209Z,9.50
2023-04-21T05:36:30.464Z,11.70
2023-04-21T05:38:57.377Z,8.40
2023-04-21T05:41:24.126Z,16.00
2023-04-21T05:43:51.265Z,12.40
2023-04-21T05:46:17.982Z,9.10
2023-04-21T05:48:44.809Z,8.60
2023-04-21T05:51:15.616Z,6.70
2023-04-21T05:53:43.791Z,10.00
2023-04-21T05:56:11.052Z,9.20
2023-04-21T05:58:38.734Z,11.30
2023-04-21T06:01:06.377Z,11.40
2023-04-21T06:03:33.524Z,8.80
2023-04-21T06:06:01.122Z,9.00
2023-04-21T06:08:28.083Z,9.30
2023-04-21T06:10:55.028Z,9.30
2023-04-21T06:13:21.781Z,9.90
2023-04-21T06:15:48.563Z,7.10
2023-04-21T06:18:16.094Z,11.70
2023-04-21T06:20:43.158Z,9.50
2023-04-21T06:23:10.064Z,13.70
2023-04-21T06:25:36.983Z,7.90
2023-04-21T06:28:03.794Z,11.70
2023-04-21T06:30:30.641Z,13.20
2023-04-21T06:32:57.453Z,9.00
2023-04-21T06:35:24.193Z,8.70
2023-04-21T06:37:50.974Z,13.60
2023-04-21T06:40:17.754Z,9.50
2023-04-21T06:42:44.485Z,8.80
2023-04-21T06:45:11.445Z,7.50
2023-04-21T06:47:38.454Z,12.20
2023-04-21T06:50:06.107Z,13.30
2023-04-21T06:52:33.329Z,21.70
2023-04-21T06:55:00.049Z,16.00
2023-04-21T06:57:27.085Z,11.10
2023-04-21T06:59:53.872Z,15.20
2023-04-21T07:02:20.639Z,13.30
2023-04-21T07:04:47.465Z,9.20
2023-04-21T07:07:14.468Z,11.50
2023-04-21T07:09:41.550Z,10.20
2023-04-21T07:12:08.289Z,8.80
2023-04-21T07:14:35.157Z,7.10
2023-04-21T07:17:01.949Z,9.40
2023-04-21T07:19:28.700Z,6.10
2023-04-21T07:21:55.727Z,11.40
2023-04-21T07:24:22.581Z,9.60
2023-04-21T07:26:49.247Z,9.00
2023-04-21T07:29:16.055Z,7.40
2023-04-21T07:31:42.919Z,16.00
2023-04-21T07:34:09.647Z,8.00
2023-04-21T07:36:38.231Z,9.60
2023-04-21T07:39:05.264Z,11.20
2023-04-21T07:41:33.007Z,8.80
2023-04-21T07:43:59.815Z,15.00
2023-04-21T07:46:30.409Z,10.00
2023-04-21T07:48:57.947Z,9.80
2023-04-21T07:51:24.823Z,9.90
2023-04-21T07:53:51.670Z,10.90
2023-04-21T07:56:18.678Z,8.10
2023-04-21T07:58:45.475Z,11.80
2023-04-21T08:01:12.343Z,12.10
2023-04-21T08:03:39.356Z,9.50
2023-04-21T08:06:06.658Z,8.00
2023-04-21T08:08:33.911Z,10.40
2023-04-21T08:11:01.416Z,16.40
2023-04-21T08:13:28.959Z,7.60
2023-04-21T08:15:55.854Z,10.30
2023-04-21T08:18:23.666Z,7.50
2023-04-21T08:20:52.561Z,6.30
2023-04-21T08:23:20.016Z,7.90
2023-04-21T08:25:46.747Z,10.70
2023-04-21T08:28:15.695Z,7.20
2023-04-21T08:30:42.673Z,13.80
2023-04-21T08:33:13.699Z,13.70
2023-04-21T08:35:51.388Z,11.40
2023-04-21T08:38:28.622Z,11.40
2023-04-21T08:40:55.340Z,6.90
2023-04-21T08:43:21.981Z,8.90
2023-04-21T08:45:48.912Z,13.00
2023-04-21T08:48:18.743Z,9.50
2023-04-21T08:50:46.296Z,8.00
2023-04-21T08:53:13.002Z,11.40
2023-04-21T08:55:40.632Z,9.40
2023-04-21T08:58:09.158Z,8.60
2023-04-21T09:00:36.410Z,8.40
2023-04-21T09:03:10.658Z,8.60
2023-04-21T09:05:43.362Z,7.90
2023-04-21T09:08:14.886Z,12.40
2023-04-21T09:10:53.346Z,11.60
2023-04-21T09:13:23.358Z,8.40
2023-04-21T09:18:22.935Z,10.00
2023-04-21T09:20:51.713Z,8.50
2023-04-21T09:23:18.468Z,10.80
2023-04-21T09:25:45.504Z,10.40
2023-04-21T09:28:13.603Z,13.00
2023-04-21T09:30:42.521Z,8.10
2023-04-21T09:33:27.140Z,10.90
2023-04-21T09:35:56.094Z,12.10
2023-04-21T09:38:22.839Z,7.90
2023-04-21T09:40:58.913Z,9.60
2023-04-21T09:43:26.433Z,11.10
2023-04-21T09:45:53.928Z,9.30
2023-04-21T09:48:22.423Z,6.20
2023-04-21T09:55:46.611Z,8.90
2023-04-21T09:58:13.375Z,7.40
2023-04-21T10:00:41.121Z,7.80
2023-04-21T10:03:10.830Z,8.70
2023-04-21T10:05:42.066Z,5.80
2023-04-21T10:08:12.218Z,7.90
2023-04-21T10:13:06.201Z,9.10
2023-04-21T10:15:40.804Z,8.70
2023-04-21T10:18:22.270Z,8.40
2023-04-21T10:21:03.163Z,10.80
2023-04-21T10:23:37.374Z,6.80
2023-04-21T10:26:26.532Z,5.70
2023-04-21T10:28:59.414Z,10.80
2023-04-21T10:31:33.587Z,6.80
2023-04-21T10:34:06.507Z,11.50
2023-04-21T10:36:35.395Z,10.20
2023-04-21T10:39:05.402Z,10.50
2023-04-21T10:41:33.654Z,6.60
2023-04-21T10:44:01.767Z,7.50
2023-04-21T10:46:44.706Z,7.40
2023-04-21T10:49:22.097Z,6.50
2023-04-21T10:52:02.637Z,9.30
2023-04-21T10:54:50.892Z,7.90
2023-04-21T10:57:19.542Z,8.30
2023-04-21T10:59:47.140Z,5.90
2023-04-21T11:02:16.028Z,7.10
2023-04-21T11:04:48.801Z,10.30
2023-04-21T11:07:25.580Z,9.90
2023-04-21T11:10:11.546Z,10.00
2023-04-21T11:12:39.549Z,10.40
2023-04-21T11:15:08.532Z,6.90
2023-04-21T11:17:39.389Z,11.60
2023-04-21T11:20:07.402Z,9.60
2023-04-21T11:22:36.693Z,9.10
2023-04-21T11:25:04.479Z,10.30
2023-04-21T11:27:31.564Z,8.90
2023-04-21T11:29:58.474Z,7.90
2023-04-21T11:32:25.741Z,13.20
2023-04-21T11:34:52.604Z,7.30
2023-04-21T11:37:29.093Z,6.50
2023-04-21T11:39:59.783Z,8.40
2023-04-21T11:42:26.763Z,10.00
2023-04-21T11:44:57.300Z,8.10
2023-04-21T11:47:28.074Z,10.90
2023-04-21T11:50:01.640Z,8.50
2023-04-21T11:52:33.366Z,5.20
2023-04-21T11:55:20.830Z,8.40
2023-04-21T11:57:48.408Z,6.30
2023-04-21T12:00:16.130Z,6.30
2023-04-21T12:02:43.458Z,6.60
2023-04-21T12:05:11.926Z,9.40
2023-04-21T12:07:42.139Z,7.70
2023-04-21T12:10:10.343Z,9.70
2023-04-21T12:12:39.411Z,4.20
2023-04-21T12:15:07.466Z,13.30
2023-04-21T12:17:44.196Z,10.50
2023-04-21T12:20:11.855Z,5.10
2023-04-21T12:22:38.741Z,9.30
2023-04-21T12:25:06.166Z,8.30
2023-04-21T12:27:33.664Z,10.00
2023-04-21T12:30:00.418Z,8.30
2023-04-21T12:32:27.405Z,7.00
2023-04-21T12:34:54.352Z,5.60
2023-04-21T12:37:21.849Z,7.10
2023-04-21T12:39:48.844Z,8.90
2023-04-21T12:42:16.253Z,8.40
2023-04-21T12:44:43.040Z,8.80
2023-04-21T12:47:10.362Z,5.80
2023-04-21T12:49:38.120Z,12.30
2023-04-21T12:52:06.226Z,9.10
2023-04-21T12:54:34.141Z,12.00
2023-04-21T12:57:01.785Z,7.10
2023-04-21T12:59:28.996Z,7.80
2023-04-21T13:01:56.173Z,11.60
2023-04-21T13:04:23.226Z,6.80
2023-04-21T13:06:50.478Z,12.90
2023-04-21T13:09:17.358Z,6.50
2023-04-21T13:11:44.376Z,11.90
2023-04-21T13:14:11.322Z,8.40
2023-04-21T13:16:38.328Z,8.30
2023-04-21T13:19:05.165Z,10.10
2023-04-21T13:21:32.782Z,12.50
2023-04-21T13:23:59.551Z,7.50
2023-04-21T13:26:27.102Z,12.30
2023-04-21T13:28:53.835Z,9.40
2023-04-21T13:31:21.033Z,9.80
2023-04-21T13:33:47.984Z,12.20
2023-04-21T13:36:14.848Z,12.70
2023-04-21T13:46:25.426Z,10.00
2023-04-21T13:48:52.343Z,9.80
2023-04-21T13:51:19.068Z,9.20
2023-04-21T13:53:46.058Z,9.70
2023-04-21T13:56:14.112Z,15.10
2023-04-21T13:58:41.715Z,8.40
2023-04-21T14:01:09.074Z,9.50
2023-04-21T14:03:36.582Z,8.20
2023-04-21T14:06:03.727Z,7.60
2023-04-21T14:08:31.043Z,9.20
2023-04-21T14:10:57.893Z,11.30
2023-04-21T14:13:37.533Z,7.00
2023-04-21T14:16:09.671Z,7.20
2023-04-21T14:18:38.431Z,11.30
2023-04-21T14:21:05.596Z,11.30
2023-04-21T14:23:33.187Z,11.90
2023-04-21T14:26:00.069Z,6.70
2023-04-21T14:28:26.873Z,8.80
2023-04-21T14:30:54.114Z,9.60
2023-04-21T14:33:20.954Z,7.60
2023-04-21T14:35:47.844Z,9.30
2023-04-21T14:38:14.836Z,10.00
2023-04-21T14:40:41.618Z,8.90
2023-04-21T14:43:11.532Z,10.80
2023-04-21T14:45:38.700Z,8.80
2023-04-21T14:48:05.558Z,11.40
2023-04-21T14:50:33.109Z,9.90
2023-04-21T14:52:59.939Z,9.60
2023-04-21T14:55:26.783Z,9.80
2023-04-21T14:57:53.776Z,9.10
2023-04-21T15:00:20.861Z,10.40
2023-04-21T15:02:47.715Z,10.60
2023-04-21T15:05:14.532Z,9.00
2023-04-21T15:07:42.126Z,7.80
2023-04-21T15:10:09.449Z,6.80
2023-04-21T15:12:37.049Z,5.90
2023-04-21T15:15:04.056Z,5.70
2023-04-21T15:17:31.087Z,5.80
2023-04-21T15:19:58.025Z,6.10
2023-04-21T15:22:25.402Z,8.20
2023-04-21T15:24:53.843Z,5.90
2023-04-21T15:27:21.810Z,7.10
2023-04-21T15:29:49.392Z,6.00
2023-04-21T15:32:16.388Z,8.80
2023-04-21T15:34:43.172Z,7.70
2023-04-21T15:37:10.062Z,6.10
2023-04-21T15:39:37.442Z,7.80
2023-04-21T15:42:05.137Z,6.40
2023-04-21T15:44:34.329Z,6.90
2023-04-21T15:47:01.816Z,7.10
2023-04-21T15:49:29.549Z,5.80
2023-04-21T15:51:57.198Z,7.80
2023-04-21T15:54:24.308Z,10.20
2023-04-21T15:56:51.376Z,6.40
2023-04-21T15:59:18.275Z,7.30
2023-04-21T16:01:45.513Z,6.40
2023-04-21T16:04:12.997Z,5.60
2023-04-21T16:06:40.178Z,6.10
2023-04-21T16:09:06.957Z,7.90
2023-04-21T16:11:34.392Z,7.40
2023-04-21T16:14:01.610Z,6.20
2023-04-21T16:16:28.723Z,5.30
2023-04-21T16:18:55.655Z,7.30
2023-04-21T16:21:22.664Z,7.40
2023-04-21T16:23:49.496Z,13.90
2023-04-21T16:26:16.675Z,11.40
2023-04-21T16:28:43.792Z,9.20
2023-04-21T16:31:11.252Z,8.90
2023-04-21T16:33:38.155Z,10.60
2023-04-21T16:36:05.344Z,7.80
2023-04-21T16:38:32.310Z,9.20
2023-04-21T16:40:59.098Z,8.50
2023-04-21T16:43:26.254Z,8.50
2023-04-21T16:45:53.121Z,9.80
2023-04-21T16:48:20.234Z,10.80
2023-04-21T16:50:47.111Z,8.60
2023-04-21T16:53:13.796Z,8.50
2023-04-21T16:55:40.586Z,21.60
2023-04-21T16:58:07.841Z,18.50
2023-04-21T17:00:36.209Z,9.10
2023-04-21T17:03:03.321Z,6.70
2023-04-21T17:05:30.669Z,6.10
2023-04-21T17:07:58.000Z,8.60
2023-04-21T17:10:27.158Z,7.80
2023-04-21T17:12:54.549Z,6.70
2023-04-21T17:15:21.308Z,10.10
2023-04-21T17:17:49.585Z,11.10
2023-04-21T17:20:16.892Z,11.30
2023-04-21T17:22:44.171Z,25.40
2023-04-21T17:25:11.298Z,19.70
2023-04-21T17:27:38.659Z,17.90
2023-04-21T17:30:07.144Z,17.20
2023-04-21T17:32:34.675Z,19.90
2023-04-21T17:35:02.934Z,20.40
2023-04-21T17:37:30.510Z,18.30
2023-04-21T17:39:59.223Z,18.60
2023-04-21T17:42:29.051Z,15.10
2023-04-21T17:44:55.781Z,14.50
2023-04-21T17:47:22.709Z,25.30
2023-04-21T17:49:49.769Z,36.80
2023-04-21T17:52:17.097Z,33.10
2023-04-21T17:54:44.298Z,32.50
2023-04-21T17:57:12.094Z,25.70
2023-04-21T17:59:39.612Z,34.80
2023-04-21T18:02:07.534Z,27.60
2023-04-21T18:04:35.240Z,32.00
2023-04-21T18:07:03.005Z,40.60
2023-04-21T18:09:30.051Z,31.20
2023-04-21T18:11:57.070Z,30.40
2023-04-21T18:14:24.668Z,28.80
2023-04-21T18:16:51.700Z,24.70
2023-04-21T18:19:18.836Z,24.50
2023-04-21T18:21:45.923Z,26.80
2023-04-21T18:24:12.790Z,18.70
2023-04-21T18:26:39.871Z,19.00
2023-04-21T18:29:06.630Z,12.50
2023-04-21T18:31:33.478Z,11.80
2023-04-21T18:34:00.863Z,11.90
2023-04-21T18:36:30.768Z,14.80
2023-04-21T18:38:59.258Z,13.40
2023-04-21T18:41:27.651Z,12.90
2023-04-21T18:43:54.551Z,11.70
2023-04-21T18:46:21.546Z,16.70
2023-04-21T18:48:48.464Z,10.60
2023-04-21T18:51:15.471Z,10.30
2023-04-21T18:53:43.403Z,8.60
2023-04-21T18:56:10.760Z,9.60
2023-04-21T18:58:37.540Z,10.00
2023-04-21T19:01:05.123Z,9.70
2023-04-21T19:03:32.331Z,8.80
2023-04-21T19:05:59.780Z,10.20
2023-04-21T19:08:38.587Z,11.80
2023-04-21T19:11:10.350Z,12.90
2023-04-21T19:13:37.340Z,14.10
2023-04-21T19:16:05.238Z,14.00
2023-04-21T19:18:32.728Z,17.20
2023-04-21T19:20:59.685Z,18.60
2023-04-21T19:23:26.480Z,16.80
2023-04-21T19:25:56.248Z,19.40
2023-04-21T19:28:23.883Z,17.60
2023-04-21T19:30:50.771Z,15.20
2023-04-21T19:33:18.210Z,18.10
2023-04-21T19:35:45.747Z,12.80
2023-04-21T19:38:12.845Z,17.90
2023-04-21T19:40:42.272Z,12.60
2023-04-21T19:43:09.125Z,13.30
2023-04-21T19:45:36.287Z,12.10
2023-04-21T19:48:04.752Z,13.40
2023-04-21T19:50:31.726Z,12.90
2023-04-21T19:53:03.689Z,11.00
2023-04-21T19:55:31.141Z,12.10
2023-04-21T19:57:58.176Z,11.00
2023-04-21T20:00:25.078Z,16.80
2023-04-21T20:02:52.340Z,20.80
2023-04-21T20:05:19.828Z,18.50
2023-04-21T20:07:46.897Z,16.10
2023-04-21T20:10:14.087Z,22.80
2023-04-21T20:12:40.995Z,24.50
2023-04-21T20:15:08.528Z,22.30
2023-04-21T20:17:37.109Z,23.60
2023-04-21T20:20:05.513Z,20.10
2023-04-21T20:22:32.291Z,18.40
2023-04-21T20:24:59.476Z,18.50
2023-04-21T20:27:26.945Z,21.70
2023-04-21T20:29:53.704Z,17.90
2023-04-21T20:32:20.535Z,20.90
2023-04-21T20:34:47.376Z,19.20
2023-04-21T20:37:14.253Z,17.00
2023-04-21T20:39:41.476Z,14.80
2023-04-21T20:42:13.387Z,13.40
2023-04-21T20:44:42.834Z,12.10
2023-04-21T20:47:10.478Z,9.70
2023-04-21T20:49:37.971Z,11.20
2023-04-21T20:52:04.990Z,9.20
2023-04-21T20:54:34.576Z,9.30
2023-04-21T20:57:02.581Z,8.20
2023-04-21T20:59:29.642Z,8.90
2023-04-21T21:01:56.852Z,7.90
2023-04-21T21:04:23.974Z,9.50
2023-04-21T21:06:51.217Z,9.00
2023-04-21T21:09:19.178Z,8.10
2023-04-21T21:11:46.244Z,9.70
2023-04-21T21:14:13.819Z,9.10
2023-04-21T21:16:40.829Z,7.50
2023-04-21T21:19:07.675Z,7.40
2023-04-21T21:21:34.537Z,9.30
2023-04-21T21:31:37.265Z,10.10
2023-04-21T21:34:04.458Z,8.00
2023-04-21T21:36:31.850Z,10.20
2023-04-21T21:38:58.781Z,8.20
2023-04-21T21:41:25.869Z,9.80
2023-04-21T21:43:52.626Z,8.50
2023-04-21T21:46:19.748Z,7.30
2023-04-21T21:56:26.125Z,7.10
2023-04-21T21:58:53.065Z,9.30
2023-04-21T22:01:19.811Z,7.30
2023-04-21T22:03:47.566Z,6.40
2023-04-21T22:06:17.159Z,10.50
2023-04-21T22:08:44.319Z,9.90
2023-04-21T22:11:11.163Z,7.20
2023-04-21T22:13:38.001Z,8.80
2023-04-21T22:16:05.160Z,5.30
2023-04-21T22:18:32.418Z,5.90
2023-04-21T22:20:59.833Z,7.40
2023-04-21T22:23:26.832Z,8.00
2023-04-21T22:25:53.809Z,8.10
2023-04-21T22:28:21.082Z,7.80
2023-04-21T22:30:47.998Z,8.90
2023-04-21T22:33:15.249Z,7.70
2023-04-21T22:35:42.189Z,7.50
2023-04-21T22:38:09.094Z,6.10
2023-04-21T22:40:36.058Z,8.00
2023-04-21T22:43:02.918Z,8.90
2023-04-21T22:45:29.992Z,7.60
2023-04-21T22:47:56.992Z,7.10
2023-04-21T22:50:24.274Z,6.80
2023-04-21T22:52:51.904Z,7.00
2023-04-21T22:55:18.688Z,7.90
2023-04-21T22:57:45.732Z,9.40
2023-04-21T23:00:12.986Z,7.10
2023-04-21T23:02:40.310Z,8.50
2023-04-21T23:05:07.888Z,4.80
2023-04-21T23:07:36.569Z,5.60
2023-04-21T23:10:03.898Z,6.50
2023-04-21T23:12:30.861Z,7.90
2023-04-21T23:14:57.617Z,9.60
2023-04-21T23:17:24.348Z,7.70
2023-04-21T23:19:51.296Z,6.20
2023-04-21T23:22:18.136Z,7.70
2023-04-21T23:24:44.972Z,8.80
2023-04-21T23:27:11.710Z,7.70
2023-04-21T23:29:38.873Z,7.30
2023-04-21T23:32:05.926Z,8.20
2023-04-21T23:34:32.977Z,6.40
2023-04-21T23:36:59.693Z,7.90
2023-04-21T23:39:26.630Z,7.00
2023-04-21T23:41:53.577Z,8.10
2023-04-21T23:44:20.812Z,8.60
2023-04-21T23:46:47.643Z,8.90
2023-04-21T23:49:14.472Z,6.40
2023-04-21T23:51:41.407Z,9.10
2023-04-21T23:54:08.985Z,8.50
2023-04-21T23:56:36.471Z,5.80
2023-04-21T23:59:03.323Z,5.90
